Time;durP1;ratioP1;P1;durP2;ratioP2;P2;SDS_P1;SDS_P2;PMS_P1;PMS_P2;Temp;Humidity;BMP_temperature;BMP_pressure;BME280_temperature;BME280_humidity;BME280_pressure;Samples;Min_cycle;Max_cycle;Signal;HPM_P1;HPM_P2
2023/11/27 00:04:22;;;;;;;0.75;0.75;;;-0.80;99.90;;;;;;6109066;23;20181;-82
2023/11/27 00:06:51;;;;;;;1.15;1.05;;;-0.80;99.90;;;;;;6213034;23;20172;-87
2023/11/27 00:09:28;;;;;;;2.35;1.67;;;-0.80;99.90;;;;;;6212342;23;20157;-88
2023/11/27 00:11:57;;;;;;;3.60;3.30;;;-0.90;99.90;;;;;;6212702;23;20189;-87
2023/11/27 00:14:27;;;;;;;1.02;1.02;;;-0.80;99.90;;;;;;6186364;23;20192;-86
2023/11/27 00:19:31;;;;;;;1.40;1.38;;;-0.80;99.90;;;;;;6187506;23;20589;-88
2023/11/27 00:21:59;;;;;;;1.60;1.45;;;-0.80;99.90;;;;;;6183331;23;20176;-87
2023/11/27 00:27:06;;;;;;;1.25;1.25;;;-0.80;99.90;;;;;;6190499;23;20215;-88
2023/11/27 00:29:33;;;;;;;1.25;1.25;;;-0.90;99.90;;;;;;6101873;23;20550;-83
2023/11/27 00:32:01;;;;;;;1.15;1.15;;;-0.80;99.90;;;;;;6212051;23;20172;-84
2023/11/27 00:34:31;;;;;;;0.85;0.85;;;-0.80;99.90;;;;;;6204990;23;20219;-84
2023/11/27 00:42:48;;;;;;;1.65;1.65;;;-0.80;99.90;;;;;;6182558;23;20252;-91
2023/11/27 00:46:20;;;;;;;2.40;2.30;;;-0.80;99.90;;;;;;6193906;23;20177;-90
2023/11/27 00:49:33;;;;;;;1.60;1.60;;;-0.90;99.90;;;;;;6192959;23;20169;-91
2023/11/27 00:52:47;;;;;;;2.45;2.35;;;-0.80;99.90;;;;;;6206455;23;20287;-90
2023/11/27 00:55:42;;;;;;;1.20;1.20;;;-0.90;99.90;;;;;;6147712;23;20177;-91
2023/11/27 00:59:42;;;;;;;;;;;;;;;;;;;;;
2023/11/27 01:02:54;;;;;;;1.08;1.08;;;-0.90;99.90;;;;;;6165990;23;20224;-86
2023/11/27 01:05:23;;;;;;;0.80;0.80;;;-1.00;99.90;;;;;;6209668;23;20146;-85
2023/11/27 01:07:51;;;;;;;3.40;3.15;;;-1.00;99.90;;;;;;6159670;23;20149;-85
2023/11/27 01:10:24;;;;;;;1.45;1.23;;;-1.00;99.90;;;;;;6183985;23;20228;-84
2023/11/27 01:13:01;;;;;;;1.38;1.20;;;-1.00;99.90;;;;;;6207905;23;20165;-82
2023/11/27 01:15:28;;;;;;;1.48;1.45;;;-1.10;99.90;;;;;;6182209;23;20161;-84
2023/11/27 01:17:56;;;;;;;1.67;1.58;;;-1.10;99.90;;;;;;6182194;23;20201;-83
2023/11/27 01:20:26;;;;;;;1.67;1.58;;;-1.10;99.90;;;;;;6206920;23;20173;-85
2023/11/27 01:22:55;;;;;;;1.90;1.80;;;-1.20;99.90;;;;;;6182200;23;20165;-86
2023/11/27 01:25:24;;;;;;;2.75;2.65;;;-1.20;99.90;;;;;;6207786;23;20184;-84
2023/11/27 01:27:53;;;;;;;2.60;2.45;;;-1.30;99.90;;;;;;6183710;23;20161;-83
2023/11/27 01:32:52;;;;;;;2.70;1.20;;;-1.40;99.90;;;;;;6270063;22;20220;-87
2023/11/27 01:35:23;;;;;;;1.42;1.40;;;-1.40;99.90;;;;;;6247920;22;20171;-83
2023/11/27 01:37:53;;;;;;;5.05;1.75;;;-1.50;99.90;;;;;;6273400;22;20180;-82
2023/11/27 01:40:23;;;;;;;1.08;1.08;;;-1.50;99.90;;;;;;6273571;22;20183;-85
2023/11/27 01:42:51;;;;;;;1.42;1.33;;;-1.70;99.90;;;;;;6261747;23;20172;-85
2023/11/27 01:45:20;;;;;;;1.15;1.15;;;-1.60;99.90;;;;;;6262151;23;20187;-86
2023/11/27 01:47:51;;;;;;;2.65;2.45;;;-1.70;99.90;;;;;;6263176;23;20223;-84
2023/11/27 01:50:20;;;;;;;1.55;1.45;;;-1.70;99.90;;;;;;6256529;23;20184;-84
2023/11/27 01:52:55;;;;;;;5.55;3.70;;;-1.70;99.90;;;;;;6234100;23;20183;-86
2023/11/27 01:55:24;;;;;;;1.38;1.30;;;-1.70;99.90;;;;;;6260871;23;20265;-87
2023/11/27 01:57:55;;;;;;;1.95;1.85;;;-1.80;99.90;;;;;;6207703;23;20214;-86
2023/11/27 02:00:22;;;;;;;1.67;1.58;;;-1.80;99.90;;;;;;6258248;23;20176;-85
2023/11/27 02:02:54;;;;;;;1.05;1.05;;;-1.70;99.90;;;;;;6263222;23;20156;-85
2023/11/27 02:05:22;;;;;;;14.25;3.28;;;-1.70;99.90;;;;;;6248272;22;20164;-85
2023/11/27 02:07:50;;;;;;;2.47;1.55;;;-1.70;99.90;;;;;;6248166;23;20178;-82
2023/11/27 02:10:19;;;;;;;1.45;1.35;;;-1.80;99.90;;;;;;6224032;22;20182;-83
2023/11/27 02:12:49;;;;;;;2.92;2.78;;;-1.90;99.90;;;;;;6266883;22;20179;-85
2023/11/27 02:15:16;;;;;;;3.17;2.97;;;-2.00;99.90;;;;;;6255963;23;20187;-84
2023/11/27 02:17:43;;;;;;;1.27;1.27;;;-2.10;99.90;;;;;;6256413;23;20311;-84
2023/11/27 02:20:11;;;;;;;7.30;1.77;;;-2.10;99.90;;;;;;6258028;23;20171;-85
2023/11/27 02:22:40;;;;;;;1.20;1.20;;;-2.10;99.90;;;;;;6237801;23;20224;-84
2023/11/27 02:25:08;;;;;;;0.85;0.85;;;-2.20;99.90;;;;;;6272488;22;20214;-83
2023/11/27 02:27:38;;;;;;;0.80;0.80;;;-2.30;99.90;;;;;;6272452;22;20215;-84
2023/11/27 02:30:06;;;;;;;3.50;2.70;;;-2.30;99.90;;;;;;6269958;22;20184;-81
2023/11/27 02:32:33;;;;;;;2.50;2.40;;;-2.40;99.90;;;;;;6273080;22;20176;-83
2023/11/27 02:35:01;;;;;;;7.03;2.05;;;-2.50;99.90;;;;;;6247066;23;20159;-83
2023/11/27 02:37:28;;;;;;;2.50;2.40;;;-2.60;99.90;;;;;;6271759;22;20199;-83
2023/11/27 02:39:56;;;;;;;1.27;1.23;;;-2.60;99.90;;;;;;6271947;23;20194;-83
2023/11/27 02:42:25;;;;;;;0.80;0.80;;;-2.60;99.90;;;;;;6271078;23;20152;-84
2023/11/27 02:44:56;;;;;;;1.02;1.02;;;-2.60;99.90;;;;;;6270819;23;20175;-82
2023/11/27 02:47:31;;;;;;;0.95;0.93;;;-2.70;99.90;;;;;;6270315;22;20201;-84
2023/11/27 02:50:01;;;;;;;2.67;2.47;;;-2.80;99.90;;;;;;6272172;22;20168;-83
2023/11/27 02:52:28;;;;;;;2.35;2.15;;;-2.90;99.90;;;;;;6269733;22;20186;-82
2023/11/27 02:54:56;;;;;;;2.00;1.92;;;-2.90;99.90;;;;;;6262823;22;20206;-83
2023/11/27 02:57:24;;;;;;;2.67;2.25;;;-2.90;99.90;;;;;;6262444;22;20242;-84
2023/11/27 02:59:53;;;;;;;1.30;1.10;;;-3.00;99.90;;;;;;6252054;23;20214;-84
2023/11/27 03:02:21;;;;;;;0.80;0.80;;;-3.10;99.90;;;;;;6252997;23;20372;-85
2023/11/27 03:04:48;;;;;;;1.35;1.35;;;-3.00;99.90;;;;;;6250401;23;20167;-82
2023/11/27 03:07:30;;;;;;;1.15;1.05;;;-3.00;99.90;;;;;;6251116;23;20357;-82
2023/11/27 03:10:04;;;;;;;1.65;1.58;;;-3.00;99.90;;;;;;6251771;23;20179;-85
2023/11/27 03:12:32;;;;;;;0.80;0.80;;;-3.10;99.90;;;;;;6252865;23;20547;-84
2023/11/27 03:14:59;;;;;;;1.70;1.60;;;-3.00;99.90;;;;;;6253489;23;20176;-85
2023/11/27 03:17:26;;;;;;;1.98;1.88;;;-3.10;99.90;;;;;;6254878;23;20299;-86
2023/11/27 03:19:54;;;;;;;0.93;0.93;;;-3.20;99.90;;;;;;6251498;23;20179;-84
2023/11/27 03:22:23;;;;;;;2.40;2.20;;;-3.20;99.90;;;;;;6251624;23;20168;-84
2023/11/27 03:24:50;;;;;;;3.25;3.05;;;-3.20;99.90;;;;;;6251477;23;20243;-85
2023/11/27 03:27:20;;;;;;;1.60;1.50;;;-3.20;99.90;;;;;;6251266;23;20249;-85
2023/11/27 03:29:49;;;;;;;6.07;1.40;;;-3.30;99.90;;;;;;6251174;23;20191;-83
2023/11/27 03:32:17;;;;;;;1.08;1.08;;;-3.30;99.90;;;;;;6250398;23;20221;-84
2023/11/27 03:34:44;;;;;;;0.90;0.90;;;-3.30;99.90;;;;;;6250263;23;20183;-82
2023/11/27 03:37:11;;;;;;;2.90;1.80;;;-3.10;99.90;;;;;;6223408;23;20226;-83
2023/11/27 03:39:47;;;;;;;3.80;2.05;;;-3.10;99.90;;;;;;6226657;23;20215;-82
2023/11/27 03:42:17;;;;;;;3.25;2.22;;;-3.00;99.90;;;;;;6250208;23;20168;-83
2023/11/27 03:44:45;;;;;;;4.10;2.03;;;-3.00;99.90;;;;;;6250174;23;20234;-84
2023/11/27 03:47:16;;;;;;;0.60;0.60;;;-3.00;99.90;;;;;;6249896;23;20286;-83
2023/11/27 03:49:43;;;;;;;2.42;1.55;;;-3.00;99.90;;;;;;6249385;23;20500;-84
2023/11/27 03:52:11;;;;;;;1.15;1.15;;;-3.10;99.90;;;;;;6251358;23;20190;-85
2023/11/27 03:54:39;;;;;;;0.63;0.63;;;-3.10;99.90;;;;;;6223214;23;20239;-84
2023/11/27 03:57:10;;;;;;;16.17;2.67;;;-3.20;99.90;;;;;;6225953;23;20440;-85
2023/11/27 03:59:44;;;;;;;2.53;1.42;;;-3.30;99.90;;;;;;6179823;23;20496;-83
2023/11/27 04:02:12;;;;;;;0.88;0.88;;;-3.30;99.90;;;;;;6225432;23;20575;-81
2023/11/27 04:04:39;;;;;;;9.00;3.38;;;-3.30;99.90;;;;;;6264269;22;20232;-83
2023/11/27 04:07:07;;;;;;;2.05;1.95;;;-3.30;99.90;;;;;;6245275;22;20223;-83
2023/11/27 04:09:34;;;;;;;1.85;1.75;;;-3.40;99.90;;;;;;6272689;22;20186;-82
2023/11/27 04:12:05;;;;;;;0.75;0.75;;;-3.40;99.90;;;;;;6273456;22;20181;-84
2023/11/27 04:14:32;;;;;;;7.82;2.30;;;-3.40;99.90;;;;;;6259958;23;20183;-84
2023/11/27 04:17:07;;;;;;;1.45;1.40;;;-3.40;99.90;;;;;;6252918;23;20194;-84
2023/11/27 04:19:34;;;;;;;2.17;2.05;;;-3.50;99.90;;;;;;6224719;23;20164;-83
2023/11/27 04:22:03;;;;;;;1.35;1.35;;;-3.50;99.90;;;;;;6249417;23;20206;-83
2023/11/27 04:24:30;;;;;;;0.88;0.88;;;-3.50;99.90;;;;;;6250148;23;20231;-84
2023/11/27 04:26:58;;;;;;;2.83;2.72;;;-3.40;99.90;;;;;;6222387;23;20215;-83
2023/11/27 04:29:26;;;;;;;3.97;2.30;;;-3.60;99.90;;;;;;6249246;23;20263;-83
2023/11/27 04:31:58;;;;;;;2.53;2.42;;;-3.50;99.90;;;;;;6262765;22;20195;-83
2023/11/27 04:34:26;;;;;;;2.08;1.98;;;-3.40;99.90;;;;;;6272270;22;20167;-83
2023/11/27 04:36:53;;;;;;;1.63;1.55;;;-3.60;99.90;;;;;;6272366;22;20164;-84
2023/11/27 04:39:23;;;;;;;1.70;1.60;;;-3.60;99.90;;;;;;6262851;23;20185;-85
2023/11/27 04:41:50;;;;;;;1.40;1.27;;;-3.70;99.90;;;;;;6224448;23;20499;-82
2023/11/27 04:44:19;;;;;;;2.45;2.35;;;-3.80;99.90;;;;;;6222849;23;20275;-83
2023/11/27 04:46:46;;;;;;;1.70;1.60;;;-3.80;99.90;;;;;;6249125;23;20296;-82
2023/11/27 04:49:13;;;;;;;1.60;1.50;;;-3.70;99.90;;;;;;6222268;23;20191;-83
2023/11/27 04:51:41;;;;;;;3.47;3.20;;;-3.70;99.90;;;;;;6247717;23;20258;-84
2023/11/27 04:54:08;;;;;;;2.30;2.20;;;-3.70;99.90;;;;;;6250242;23;20187;-84
2023/11/27 04:56:36;;;;;;;9.30;3.08;;;-3.70;99.90;;;;;;6250956;23;20179;-83
2023/11/27 04:59:04;;;;;;;1.05;1.05;;;-3.80;99.90;;;;;;6251136;23;20200;-84
2023/11/27 05:01:36;;;;;;;2.33;2.22;;;-3.80;99.90;;;;;;6227697;23;20188;-80
2023/11/27 05:04:05;;;;;;;4.13;3.90;;;-3.70;99.90;;;;;;6250696;23;20172;-80
2023/11/27 05:06:33;;;;;;;2.20;2.15;;;-3.80;99.90;;;;;;6250108;23;20184;-80
2023/11/27 05:09:02;;;;;;;1.33;1.23;;;-3.90;99.90;;;;;;6250695;23;20641;-80
2023/11/27 05:11:30;;;;;;;1.48;1.48;;;-3.80;99.90;;;;;;6254058;23;20202;-80
2023/11/27 05:13:56;;;;;;;5.30;3.17;;;-3.90;99.90;;;;;;6253528;23;20614;-80
2023/11/27 05:16:24;;;;;;;2.72;2.63;;;-3.90;99.90;;;;;;6252489;23;20555;-80
2023/11/27 05:18:51;;;;;;;1.15;1.15;;;-3.90;99.90;;;;;;6225041;23;20204;-80
2023/11/27 05:21:18;;;;;;;2.13;2.00;;;-3.90;99.90;;;;;;6224130;23;20180;-79
2023/11/27 05:23:46;;;;;;;3.08;2.80;;;-3.90;99.90;;;;;;6250914;23;20360;-79
2023/11/27 05:26:13;;;;;;;1.67;1.67;;;-3.90;99.90;;;;;;6223866;23;20663;-78
2023/11/27 05:28:40;;;;;;;2.13;2.03;;;-3.90;99.90;;;;;;6250946;23;20187;-78
2023/11/27 05:31:07;;;;;;;3.15;2.95;;;-3.90;99.90;;;;;;6251216;23;20241;-79
2023/11/27 05:33:35;;;;;;;2.10;2.00;;;-3.90;99.90;;;;;;6251073;23;20184;-77
2023/11/27 05:36:03;;;;;;;4.53;3.85;;;-3.90;99.90;;;;;;6224295;23;20207;-79
2023/11/27 05:38:30;;;;;;;1.05;1.05;;;-3.90;99.90;;;;;;6252649;23;20286;-77
2023/11/27 05:40:59;;;;;;;1.10;1.10;;;-3.90;99.90;;;;;;6252502;23;20226;-79
2023/11/27 05:43:27;;;;;;;2.05;1.95;;;-3.90;99.90;;;;;;6250504;23;20211;-78
2023/11/27 05:45:56;;;;;;;3.58;3.38;;;-4.00;99.90;;;;;;6224103;23;20180;-79
2023/11/27 05:48:23;;;;;;;2.53;2.35;;;-4.00;99.90;;;;;;6250498;23;20192;-78
2023/11/27 05:50:50;;;;;;;10.07;4.90;;;-4.00;99.90;;;;;;6251522;23;20414;-81
2023/11/27 05:53:23;;;;;;;6.97;3.70;;;-4.00;99.90;;;;;;6251127;23;20176;-80
2023/11/27 05:55:49;;;;;;;2.17;2.03;;;-4.10;99.90;;;;;;6251406;23;20247;-83
2023/11/27 05:58:19;;;;;;;8.02;2.55;;;-4.00;99.90;;;;;;6250105;23;20203;-78
2023/11/27 06:00:51;;;;;;;2.13;2.03;;;-4.00;99.90;;;;;;6250201;23;20168;-81
2023/11/27 06:03:20;;;;;;;5.82;3.65;;;-4.00;99.90;;;;;;6234430;23;20179;-79
2023/11/27 06:05:47;;;;;;;3.53;3.38;;;-3.90;99.90;;;;;;6268888;23;20184;-79
2023/11/27 06:08:14;;;;;;;9.98;6.25;;;-3.90;99.90;;;;;;6271873;23;20175;-80
2023/11/27 06:10:41;;;;;;;2.28;1.30;;;-3.90;99.90;;;;;;6272021;22;20167;-81
2023/11/27 06:13:08;;;;;;;3.55;1.88;;;-4.00;99.90;;;;;;6265283;23;20168;-79
2023/11/27 06:15:46;;;;;;;3.72;2.35;;;-4.00;99.90;;;;;;6228296;23;20186;-79
2023/11/27 06:18:14;;;;;;;1.60;1.50;;;-4.00;99.90;;;;;;6252932;23;20214;-80
2023/11/27 06:20:42;;;;;;;1.73;1.63;;;-4.00;99.90;;;;;;6199229;23;20179;-80
2023/11/27 06:23:09;;;;;;;3.85;3.60;;;-4.00;99.90;;;;;;6252186;23;20277;-79
2023/11/27 06:25:36;;;;;;;6.60;4.53;;;-4.00;99.90;;;;;;6252808;23;20170;-80
2023/11/27 06:28:03;;;;;;;4.28;2.80;;;-3.90;99.90;;;;;;6251184;23;20207;-77
2023/11/27 06:30:30;;;;;;;5.47;3.90;;;-3.90;99.90;;;;;;6250490;23;20175;-81
2023/11/27 06:33:10;;;;;;;6.38;5.82;;;-3.90;99.90;;;;;;6257485;23;20172;-79
2023/11/27 06:35:38;;;;;;;6.28;5.28;;;-3.90;99.90;;;;;;6257710;23;20191;-81
2023/11/27 06:38:05;;;;;;;2.78;2.58;;;-3.80;99.90;;;;;;6251790;23;20231;-77
2023/11/27 06:40:32;;;;;;;3.88;3.53;;;-3.90;99.90;;;;;;6228171;23;20199;-79
2023/11/27 06:43:13;;;;;;;9.07;2.25;;;-3.90;99.90;;;;;;6255805;23;20164;-79
2023/11/27 06:45:42;;;;;;;2.58;2.47;;;-3.90;99.90;;;;;;6256146;23;20220;-79
2023/11/27 06:48:09;;;;;;;5.03;3.30;;;-3.80;99.90;;;;;;6253719;23;20580;-78
2023/11/27 06:50:37;;;;;;;7.07;3.67;;;-3.80;99.90;;;;;;6250131;23;20188;-79
2023/11/27 06:53:04;;;;;;;46.15;4.32;;;-3.80;99.90;;;;;;6251170;23;20248;-80
2023/11/27 06:55:31;;;;;;;5.32;3.35;;;-3.80;99.90;;;;;;6250663;23;20183;-80
2023/11/27 06:57:58;;;;;;;2.65;2.45;;;-3.70;99.90;;;;;;6224117;23;20648;-78
2023/11/27 07:00:31;;;;;;;1.80;1.65;;;-3.70;99.90;;;;;;6249567;23;20210;-78
2023/11/27 07:02:59;;;;;;;3.05;2.85;;;-3.70;99.90;;;;;;6253411;23;20356;-79
2023/11/27 07:05:26;;;;;;;4.25;3.13;;;-3.80;99.90;;;;;;6252674;23;20249;-79
2023/11/27 07:07:53;;;;;;;3.25;3.05;;;-3.80;99.90;;;;;;6248206;23;20183;-78
2023/11/27 07:10:20;;;;;;;2.88;2.55;;;-3.70;99.90;;;;;;6250115;23;20183;-78
2023/11/27 07:12:49;;;;;;;4.43;4.22;;;-3.60;99.90;;;;;;6198637;23;20260;-80
2023/11/27 07:15:20;;;;;;;3.88;3.15;;;-3.50;99.90;;;;;;6249799;23;20211;-79
2023/11/27 07:17:47;;;;;;;3.42;3.22;;;-3.50;99.90;;;;;;6221825;23;20187;-78
2023/11/27 07:20:18;;;;;;;4.95;4.68;;;-3.40;99.90;;;;;;6249283;23;20180;-79
2023/11/27 07:22:46;;;;;;;10.05;6.50;;;-3.20;99.90;;;;;;6248740;23;20168;-78
2023/11/27 07:25:17;;;;;;;5.63;5.20;;;-3.20;99.90;;;;;;6223953;23;20207;-79
2023/11/27 07:27:49;;;;;;;4.18;3.70;;;-3.10;99.90;;;;;;6225266;23;20168;-80
2023/11/27 07:30:16;;;;;;;2.95;2.33;;;-3.00;99.90;;;;;;6203369;23;20236;-79
2023/11/27 07:32:45;;;;;;;3.35;3.03;;;-2.90;99.90;;;;;;6272252;23;20187;-79
2023/11/27 07:35:13;;;;;;;6.68;5.10;;;-2.80;99.90;;;;;;6272060;22;20164;-78
2023/11/27 07:37:41;;;;;;;7.13;3.63;;;-2.70;99.90;;;;;;6259224;23;20199;-79
2023/11/27 07:40:11;;;;;;;5.15;3.58;;;-2.60;99.90;;;;;;6249905;23;20192;-78
2023/11/27 07:42:39;;;;;;;5.50;4.80;;;-2.70;99.90;;;;;;6251023;23;20179;-79
2023/11/27 07:45:07;;;;;;;4.05;3.63;;;-2.50;99.90;;;;;;6250910;23;20202;-79
2023/11/27 07:47:36;;;;;;;2.88;2.67;;;-2.40;99.90;;;;;;6251923;23;20167;-80
2023/11/27 07:50:06;;;;;;;1.63;1.55;;;-2.30;99.90;;;;;;6251549;23;20192;-80
2023/11/27 07:52:34;;;;;;;6.25;4.05;;;-2.30;99.90;;;;;;6251988;23;20182;-79
2023/11/27 07:55:04;;;;;;;5.07;4.78;;;-2.30;99.90;;;;;;6251080;23;20183;-79
2023/11/27 07:57:32;;;;;;;1.40;1.17;;;-2.30;99.90;;;;;;6224009;23;20200;-79
2023/11/27 08:00:01;;;;;;;3.13;2.90;;;-2.20;99.90;;;;;;6263982;22;20217;-79
2023/11/27 08:02:29;;;;;;;4.88;2.88;;;-2.20;99.90;;;;;;6270358;23;20190;-80
2023/11/27 08:04:56;;;;;;;3.38;3.17;;;-2.10;99.90;;;;;;6245902;23;20194;-79
2023/11/27 08:07:23;;;;;;;4.90;2.78;;;-2.10;99.90;;;;;;6272163;22;20195;-79
2023/11/27 08:09:50;;;;;;;9.95;5.80;;;-2.00;99.90;;;;;;6246726;22;20184;-80
2023/11/27 08:12:18;;;;;;;4.32;3.70;;;-1.90;99.90;;;;;;6265688;23;20172;-81
2023/11/27 08:14:49;;;;;;;2.10;2.00;;;-1.80;99.90;;;;;;6256063;23;20455;-79
2023/11/27 08:17:16;;;;;;;1.67;1.58;;;-1.80;99.90;;;;;;6252939;23;20183;-79
2023/11/27 08:19:44;;;;;;;2.20;2.08;;;-1.70;99.90;;;;;;6250054;23;20204;-79
2023/11/27 08:22:11;;;;;;;1.85;1.75;;;-1.60;99.90;;;;;;6223544;23;20180;-80
2023/11/27 08:24:40;;;;;;;4.07;3.78;;;-1.60;99.90;;;;;;6251537;23;20217;-79
2023/11/27 08:27:07;;;;;;;1.75;1.67;;;-1.60;99.90;;;;;;6248816;23;20180;-79
2023/11/27 08:29:35;;;;;;;0.90;0.90;;;-1.50;99.90;;;;;;6221976;23;20191;-80
2023/11/27 08:32:02;;;;;;;4.63;4.28;;;-1.40;99.90;;;;;;6247938;23;20191;-79
2023/11/27 08:34:29;;;;;;;1.73;1.63;;;-1.40;99.90;;;;;;6249126;23;20261;-80
2023/11/27 08:36:59;;;;;;;3.67;3.35;;;-1.40;99.90;;;;;;6251189;23;20246;-80
2023/11/27 08:39:26;;;;;;;4.32;3.70;;;-1.20;99.90;;;;;;6256730;23;20255;-80
2023/11/27 08:41:53;;;;;;;3.55;3.15;;;-1.20;99.90;;;;;;6227227;23;20186;-81
2023/11/27 08:44:20;;;;;;;4.57;4.18;;;-1.00;99.90;;;;;;6251332;23;20186;-79
2023/11/27 08:46:47;;;;;;;4.82;4.40;;;-1.00;99.90;;;;;;6250780;23;20175;-82
2023/11/27 08:49:15;;;;;;;1.00;1.00;;;-0.90;99.90;;;;;;6224831;23;20538;-81
2023/11/27 08:51:45;;;;;;;4.43;3.08;;;-0.80;99.90;;;;;;6251768;23;20186;-82
2023/11/27 08:54:12;;;;;;;7.97;2.58;;;-0.70;99.90;;;;;;6257470;23;20180;-81
2023/11/27 08:56:43;;;;;;;3.05;2.78;;;-0.60;99.90;;;;;;6261859;23;20198;-80
2023/11/27 08:59:26;;;;;;;3.55;2.22;;;-0.60;99.90;;;;;;6263398;23;20251;-81
2023/11/27 09:01:54;;;;;;;32.92;5.65;;;-0.60;99.90;;;;;;6253896;23;20239;-82
2023/11/27 09:04:25;;;;;;;2.35;2.25;;;-0.50;99.90;;;;;;6250529;23;20567;-81
2023/11/27 09:06:55;;;;;;;2.10;2.00;;;-0.50;99.90;;;;;;6251120;23;20180;-81
2023/11/27 09:09:23;;;;;;;18.17;5.25;;;-0.40;99.90;;;;;;6251146;23;20184;-80
2023/11/27 09:11:50;;;;;;;2.42;2.28;;;-0.40;99.90;;;;;;6226374;23;20498;-83
2023/11/27 09:14:18;;;;;;;2.60;1.90;;;-0.30;99.90;;;;;;6250624;23;20195;-82
2023/11/27 09:16:45;;;;;;;2.50;2.40;;;-0.30;99.90;;;;;;6252166;23;20191;-82
2023/11/27 09:19:13;;;;;;;2.20;2.00;;;-0.10;99.90;;;;;;6252392;23;20267;-83
2023/11/27 09:21:45;;;;;;;0.70;0.70;;;-0.10;99.90;;;;;;6252067;23;20176;-81
2023/11/27 09:24:14;;;;;;;2.42;2.33;;;-0.10;99.90;;;;;;6250969;23;20432;-81
2023/11/27 09:26:41;;;;;;;3.10;2.90;;;0.00;99.90;;;;;;6250567;23;20415;-83
2023/11/27 09:29:11;;;;;;;1.90;1.75;;;0.10;99.90;;;;;;6250637;23;20424;-82
2023/11/27 09:31:38;;;;;;;1.17;1.17;;;0.00;99.90;;;;;;6251298;23;20246;-82
2023/11/27 09:34:08;;;;;;;6.13;3.45;;;0.10;99.90;;;;;;6252091;23;20184;-84
2023/11/27 09:36:38;;;;;;;2.15;1.75;;;0.10;99.90;;;;;;6252288;23;20413;-82
2023/11/27 09:39:11;;;;;;;0.73;0.73;;;0.00;99.90;;;;;;6225446;23;20298;-83
2023/11/27 09:41:41;;;;;;;2.80;2.58;;;0.00;99.90;;;;;;6252324;23;20179;-82
2023/11/27 09:44:13;;;;;;;1.23;1.23;;;0.10;99.90;;;;;;6250621;23;20663;-82
2023/11/27 09:46:44;;;;;;;1.35;1.25;;;0.10;99.90;;;;;;6251489;23;20198;-83
2023/11/27 09:49:24;;;;;;;2.60;2.38;;;0.20;99.90;;;;;;6253212;23;20178;-82
2023/11/27 09:52:01;;;;;;;2.00;1.90;;;0.30;99.90;;;;;;6254419;23;20172;-83
2023/11/27 09:54:34;;;;;;;3.60;3.28;;;0.20;99.90;;;;;;6252481;23;20159;-83
2023/11/27 09:57:02;;;;;;;1.13;1.13;;;0.30;99.90;;;;;;6252412;23;20519;-82
2023/11/27 09:59:38;;;;;;;4.40;3.05;;;0.30;99.90;;;;;;6252848;23;20188;-83
2023/11/27 10:02:09;;;;;;;1.33;1.33;;;0.40;99.90;;;;;;6226429;23;20166;-82
2023/11/27 10:04:37;;;;;;;6.00;3.90;;;0.40;99.90;;;;;;6252446;23;20195;-81
2023/11/27 10:07:07;;;;;;;1.30;1.30;;;0.60;99.90;;;;;;6255168;23;20191;-83
2023/11/27 10:09:36;;;;;;;2.70;1.35;;;0.40;99.90;;;;;;6256628;23;20259;-82
2023/11/27 10:12:05;;;;;;;1.77;1.50;;;0.50;99.90;;;;;;6257340;23;20176;-84
2023/11/27 10:14:34;;;;;;;2.00;1.88;;;0.50;99.90;;;;;;6254658;23;20184;-83
2023/11/27 10:17:07;;;;;;;1.15;1.15;;;0.60;99.90;;;;;;6227290;23;20183;-83
2023/11/27 10:19:39;;;;;;;12.90;1.77;;;0.50;99.90;;;;;;6201760;23;20192;-82
2023/11/27 10:22:11;;;;;;;0.80;0.80;;;0.60;99.90;;;;;;6252653;23;20421;-83
2023/11/27 10:24:48;;;;;;;1.30;1.20;;;0.60;99.90;;;;;;6252618;23;20168;-83
2023/11/27 10:27:18;;;;;;;2.38;2.00;;;0.60;99.90;;;;;;6250747;23;20175;-81
2023/11/27 10:29:48;;;;;;;0.80;0.80;;;0.60;99.90;;;;;;6252093;23;20192;-83
2023/11/27 10:32:17;;;;;;;1.90;1.83;;;0.60;99.90;;;;;;6252771;23;20222;-84
2023/11/27 10:34:44;;;;;;;0.57;0.57;;;0.70;99.90;;;;;;6224706;23;20242;-82
2023/11/27 10:37:13;;;;;;;1.38;1.38;;;0.60;99.90;;;;;;6251492;23;20182;-84
2023/11/27 10:39:42;;;;;;;0.82;0.82;;;0.80;99.90;;;;;;6250918;23;20191;-81
2023/11/27 10:42:12;;;;;;;0.80;0.80;;;0.90;99.90;;;;;;6251710;23;20175;-82
2023/11/27 10:44:44;;;;;;;0.70;0.70;;;0.90;99.90;;;;;;6251076;23;20160;-82
2023/11/27 10:47:12;;;;;;;0.88;0.88;;;1.00;99.90;;;;;;6252095;23;20202;-82
2023/11/27 10:49:43;;;;;;;1.00;1.00;;;0.90;99.90;;;;;;6252230;23;20261;-86
2023/11/27 10:52:17;;;;;;;2.05;1.95;;;1.00;99.90;;;;;;6251350;23;20163;-85
2023/11/27 10:54:49;;;;;;;0.70;0.70;;;0.90;99.90;;;;;;6251738;23;20200;-83
2023/11/27 10:57:18;;;;;;;0.90;0.90;;;1.00;99.90;;;;;;6250907;23;20247;-81
2023/11/27 10:59:48;;;;;;;1.77;1.67;;;1.20;99.90;;;;;;6225210;23;20262;-83
2023/11/27 11:02:17;;;;;;;0.98;0.98;;;1.20;99.90;;;;;;6228025;23;20415;-82
2023/11/27 11:04:51;;;;;;;3.58;2.35;;;1.30;99.90;;;;;;6251762;23;20230;-83
2023/11/27 11:07:47;;;;;;;2.80;1.02;;;1.30;99.90;;;;;;6251832;23;20168;-82
2023/11/27 11:10:15;;;;;;;1.00;1.00;;;1.00;99.90;;;;;;6251894;23;20198;-82
2023/11/27 11:12:43;;;;;;;1.02;0.95;;;1.00;99.90;;;;;;6227527;23;20224;-82
2023/11/27 11:15:15;;;;;;;0.50;0.50;;;1.00;99.90;;;;;;6257739;23;20227;-83
2023/11/27 11:18:10;;;;;;;0.57;0.57;;;1.00;99.90;;;;;;6261099;23;20164;-82
2023/11/27 11:21:14;;;;;;;0.50;0.50;;;0.90;99.90;;;;;;6260943;23;20226;-83
2023/11/27 11:24:15;;;;;;;0.70;0.70;;;1.00;99.90;;;;;;6230578;23;20167;-84
2023/11/27 11:26:47;;;;;;;0.70;0.70;;;1.10;99.90;;;;;;6224964;23;20175;-86
2023/11/27 11:29:30;;;;;;;5.00;1.15;;;1.20;99.90;;;;;;6250963;23;20239;-85
2023/11/27 11:32:09;;;;;;;1.17;1.17;;;1.30;99.90;;;;;;6251182;23;20417;-86
2023/11/27 11:34:40;;;;;;;0.70;0.70;;;1.40;99.90;;;;;;6250715;23;20171;-81
2023/11/27 11:37:15;;;;;;;2.85;1.55;;;1.30;99.90;;;;;;6251885;23;20164;-82
2023/11/27 11:39:49;;;;;;;0.70;0.70;;;1.30;99.90;;;;;;6252630;23;20188;-85
2023/11/27 11:42:22;;;;;;;1.75;1.65;;;1.30;99.90;;;;;;6252226;23;20163;-85
2023/11/27 11:48:08;;;;;;;0.70;0.70;;;1.30;99.90;;;;;;6241580;23;20208;-85
2023/11/27 11:50:47;;;;;;;0.70;0.70;;;1.40;99.90;;;;;;6252320;23;20384;-86
2023/11/27 11:53:20;;;;;;;1.52;1.38;;;1.30;99.90;;;;;;6251727;23;20541;-82
2023/11/27 11:55:55;;;;;;;1.00;1.00;;;1.40;99.90;;;;;;6251384;23;20681;-84
2023/11/27 11:58:27;;;;;;;0.93;0.93;;;1.40;99.90;;;;;;6253806;23;20172;-88
2023/11/27 12:01:03;;;;;;;0.70;0.70;;;1.40;99.90;;;;;;6253329;23;20247;-88
2023/11/27 12:03:34;;;;;;;1.00;0.90;;;1.40;99.90;;;;;;6256925;23;20167;-84
2023/11/27 12:06:13;;;;;;;1.23;1.20;;;1.40;99.90;;;;;;6262366;23;20230;-86
2023/11/27 12:08:58;;;;;;;0.70;0.70;;;1.30;99.90;;;;;;6265854;22;20236;-84
2023/11/27 12:11:31;;;;;;;1.33;1.33;;;1.50;99.90;;;;;;6270287;22;20183;-84
2023/11/27 12:14:04;;;;;;;0.88;0.88;;;1.50;99.90;;;;;;6185107;23;20487;-84
2023/11/27 12:16:34;;;;;;;1.75;1.73;;;1.50;99.90;;;;;;6254600;23;20223;-86
2023/11/27 12:19:11;;;;;;;3.90;3.70;;;1.60;99.90;;;;;;6252711;23;20566;-84
2023/11/27 12:21:38;;;;;;;0.70;0.70;;;1.60;99.90;;;;;;6252194;23;20191;-84
2023/11/27 12:24:11;;;;;;;2.65;1.60;;;1.60;99.90;;;;;;6255481;23;20199;-86
2023/11/27 12:26:53;;;;;;;0.70;0.70;;;1.70;99.90;;;;;;6256544;23;20164;-88
2023/11/27 12:31:57;;;;;;;8.38;6.10;;;1.60;99.90;;;;;;6167134;23;20476;-86
2023/11/27 12:34:29;;;;;;;11.88;3.53;;;1.60;99.90;;;;;;6196181;23;20281;-88
2023/11/27 12:37:06;;;;;;;0.70;0.70;;;1.50;99.90;;;;;;6194865;23;20185;-85
2023/11/27 12:39:40;;;;;;;3.22;3.03;;;1.30;99.90;;;;;;6191580;23;20192;-87
2023/11/27 12:42:16;;;;;;;8.40;3.53;;;1.10;99.90;;;;;;6137018;23;20537;-90
2023/11/27 12:44:50;;;;;;;4.10;1.58;;;1.10;99.90;;;;;;6167245;23;20373;-84
2023/11/27 12:47:21;;;;;;;1.05;1.05;;;0.90;99.90;;;;;;6193140;23;20413;-85
2023/11/27 12:49:53;;;;;;;0.63;0.63;;;1.00;99.90;;;;;;6193159;23;20293;-84
2023/11/27 12:52:25;;;;;;;1.25;1.25;;;0.90;99.90;;;;;;6190492;23;20185;-86
2023/11/27 12:54:56;;;;;;;1.08;1.08;;;1.00;99.90;;;;;;6193325;23;20184;-84
2023/11/27 12:57:25;;;;;;;1.63;1.33;;;0.90;99.90;;;;;;6165229;23;20181;-86
2023/11/27 12:59:52;;;;;;;0.60;0.60;;;0.90;99.90;;;;;;6189641;23;20226;-83
2023/11/27 13:02:25;;;;;;;2.25;2.05;;;1.10;99.90;;;;;;6164504;23;20205;-86
2023/11/27 13:04:58;;;;;;;0.65;0.65;;;1.10;99.90;;;;;;6167730;23;20172;-84
2023/11/27 13:07:27;;;;;;;0.77;0.77;;;1.10;99.90;;;;;;6143611;23;20188;-86
2023/11/27 13:09:59;;;;;;;0.50;0.50;;;1.10;99.90;;;;;;6193933;23;20192;-87
2023/11/27 13:12:27;;;;;;;1.10;1.10;;;1.10;99.90;;;;;;6167970;23;20165;-85
2023/11/27 13:14:57;;;;;;;1.90;1.80;;;1.10;99.90;;;;;;6193153;23;20450;-85
2023/11/27 13:17:27;;;;;;;1.05;1.05;;;1.20;99.90;;;;;;6194876;23;20176;-85
2023/11/27 13:19:56;;;;;;;1.38;1.33;;;1.20;99.90;;;;;;6199236;23;20207;-86
2023/11/27 13:22:31;;;;;;;1.67;1.58;;;1.30;99.90;;;;;;6197950;23;20245;-83
2023/11/27 13:25:05;;;;;;;0.75;0.75;;;1.40;99.90;;;;;;6172158;23;20169;-87
2023/11/27 13:27:44;;;;;;;1.30;1.17;;;1.30;99.90;;;;;;6204920;23;20185;-88
2023/11/27 13:30:27;;;;;;;2.90;2.70;;;1.30;99.90;;;;;;6183276;23;20193;-86
2023/11/27 13:33:09;;;;;;;2.65;2.45;;;1.30;99.90;;;;;;6173788;23;20196;-86